createdAt,value
2018-03-08T00:00:54.663Z,85.07
2018-03-08T00:02:04.863Z,85.13
2018-03-08T00:03:15.039Z,84.98
2018-03-08T00:04:25.231Z,84.88
2018-03-08T00:05:35.373Z,84.88
2018-03-08T00:06:45.500Z,84.88
2018-03-08T00:07:55.635Z,84.98
2018-03-08T00:09:05.412Z,84.94
2018-03-08T00:10:15.556Z,84.98
2018-03-08T00:11:25.717Z,85.17
2018-03-08T00:12:35.930Z,85.07
2018-03-08T00:13:46.109Z,84.98
2018-03-08T00:14:56.418Z,85.17
2018-03-08T00:16:06.650Z,84.98
2018-03-08T00:17:16.849Z,85.55
2018-03-08T00:18:26.999Z,85.03
2018-03-08T00:19:37.169Z,85.36
2018-03-08T00:20:47.308Z,85.07
2018-03-08T00:21:57.471Z,85.36
2018-03-08T00:23:07.595Z,84.88
2018-03-08T00:24:17.764Z,84.98
2018-03-08T00:25:27.951Z,84.98
2018-03-08T00:26:38.191Z,85.17
2018-03-08T00:27:48.314Z,85.07
2018-03-08T00:28:58.271Z,84.98
2018-03-08T00:30:07.888Z,84.98
2018-03-08T00:31:18.053Z,84.98
2018-03-08T00:32:27.934Z,85.17
2018-03-08T00:33:37.850Z,85.17
2018-03-08T00:34:47.995Z,84.98
2018-03-08T00:35:57.950Z,85.17
2018-03-08T00:37:07.558Z,84.98
2018-03-08T00:38:17.494Z,84.78
2018-03-08T00:39:27.745Z,84.78
2018-03-08T00:40:37.957Z,84.88
2018-03-08T00:41:48.106Z,85.17
2018-03-08T00:42:58.261Z,85.22
2018-03-08T00:44:08.424Z,85.17
2018-03-08T00:45:18.321Z,85.07
2018-03-08T00:46:28.192Z,85.03
2018-03-08T00:47:38.068Z,85.13
2018-03-08T00:48:47.989Z,85.13
2018-03-08T00:49:58.240Z,85.22
2018-03-08T00:51:08.115Z,84.74
2018-03-08T00:52:17.842Z,84.84
2018-03-08T00:53:27.471Z,85.41
2018-03-08T00:54:37.715Z,85.41
2018-03-08T00:55:47.911Z,85.13
2018-03-08T00:56:58.055Z,85.13
2018-03-08T00:58:07.920Z,85.22
2018-03-08T00:59:17.750Z,85.07
2018-03-08T01:00:27.698Z,85.36
2018-03-08T01:01:37.912Z,85.5
2018-03-08T01:02:47.890Z,85.07
2018-03-08T01:03:58.045Z,85.6
2018-03-08T01:05:08.007Z,85.31
2018-03-08T01:06:17.937Z,85.03
2018-03-08T01:07:28.122Z,84.98
2018-03-08T01:08:38.317Z,84.98
2018-03-08T01:09:48.244Z,84.94
2018-03-08T01:10:57.509Z,85.17
2018-03-08T01:12:07.673Z,85.22
2018-03-08T01:13:17.562Z,85.22
2018-03-08T01:14:27.703Z,85.03
2018-03-08T01:15:37.869Z,84.94
2018-03-08T01:16:48.068Z,85.5
2018-03-08T01:17:58.196Z,86.07
2018-03-08T01:19:08.395Z,86.26
2018-03-08T01:20:18.233Z,86.07
2018-03-08T01:21:27.732Z,86.26
2018-03-08T01:22:37.868Z,86.07
2018-03-08T01:23:47.729Z,86.26
2018-03-08T01:24:57.613Z,86.35
2018-03-08T01:26:07.788Z,86.83
2018-03-08T01:27:18.025Z,86.45
2018-03-08T01:28:28.190Z,86.74
2018-03-08T01:29:38.384Z,86.93
2018-03-08T01:30:48.569Z,86.97
2018-03-08T01:31:58.722Z,86.74
2018-03-08T01:33:08.879Z,86.74
2018-03-08T01:34:18.834Z,86.74
2018-03-08T01:35:29.033Z,86.55
2018-03-08T01:36:38.920Z,86.55
2018-03-08T01:37:49.144Z,87.02
2018-03-08T01:38:59.017Z,86.93
2018-03-08T01:40:09.173Z,86.83
2018-03-08T01:41:19.339Z,86.74
2018-03-08T01:42:29.507Z,86.74
2018-03-08T01:43:39.253Z,87.4
2018-03-08T01:44:49.034Z,87.12
2018-03-08T01:45:59.187Z,86.83
2018-03-08T01:47:09.320Z,87.4
2018-03-08T01:48:19.195Z,87.4
2018-03-08T01:49:29.057Z,87.02
2018-03-08T01:50:38.598Z,87.77
2018-03-08T01:51:48.499Z,87.97
2018-03-08T01:52:58.488Z,87.87
2018-03-08T01:54:08.625Z,87.97
2018-03-08T01:55:18.476Z,87.77
2018-03-08T01:56:28.377Z,87.49
2018-03-08T01:57:38.275Z,87.68
2018-03-08T01:58:48.398Z,88.06
2018-03-08T01:59:58.528Z,87.4
2018-03-08T02:01:08.222Z,87.77
2018-03-08T02:02:18.370Z,88.06
2018-03-08T02:03:28.561Z,88.1
2018-03-08T02:04:38.696Z,88.44
2018-03-08T02:05:49.104Z,88.48
2018-03-08T02:06:59.233Z,88.29
2018-03-08T02:08:09.376Z,88.2
2018-03-08T02:09:18.972Z,88.2
2018-03-08T02:10:29.095Z,88.48
2018-03-08T02:11:39.025Z,88.1
2018-03-08T02:12:49.257Z,87.73
2018-03-08T02:13:59.400Z,88.1
2018-03-08T02:15:09.514Z,88.1
2018-03-08T02:16:19.700Z,88.2
2018-03-08T02:17:29.718Z,88.2
2018-03-08T02:18:39.500Z,88.1
2018-03-08T02:19:49.388Z,88.1
2018-03-08T02:20:59.196Z,88.39
2018-03-08T02:22:08.951Z,87.82
2018-03-08T02:23:19.296Z,88.48
2018-03-08T02:24:29.146Z,88.48
2018-03-08T02:25:39.441Z,88.48
2018-03-08T02:26:49.599Z,88.29
2018-03-08T02:27:59.846Z,88.48
2018-03-08T02:29:09.726Z,88.39
2018-03-08T02:30:19.586Z,88.2
2018-03-08T02:31:29.695Z,87.63
2018-03-08T02:32:39.815Z,87.73
2018-03-08T02:33:49.965Z,88.01
2018-03-08T02:34:59.830Z,88.01
2018-03-08T02:36:09.966Z,87.63
2018-03-08T02:37:20.127Z,88.1
2018-03-08T02:38:30.326Z,88.01
2018-03-08T02:39:40.188Z,88.01
2018-03-08T02:40:49.806Z,87.73
2018-03-08T02:41:59.686Z,87.73
2018-03-08T02:43:09.778Z,88.1
2018-03-08T02:44:19.977Z,88.01
2018-03-08T02:45:29.825Z,87.92
2018-03-08T02:46:39.704Z,87.92
2018-03-08T02:47:49.881Z,87.92
2018-03-08T02:48:59.637Z,87.92
2018-03-08T02:50:09.762Z,87.82
2018-03-08T02:51:19.624Z,87.92
2018-03-08T02:52:29.661Z,87.92
2018-03-08T02:53:39.546Z,87.82
2018-03-08T02:54:50.906Z,87.92
2018-03-08T02:56:00.782Z,87.92
2018-03-08T02:57:10.547Z,87.73
2018-03-08T02:58:20.703Z,87.45
2018-03-08T02:59:30.367Z,87.73
2018-03-08T03:00:40.516Z,87.82
2018-03-08T03:01:50.429Z,87.82
2018-03-08T03:03:00.313Z,88.01
2018-03-08T03:04:10.729Z,87.92
2018-03-08T03:05:20.899Z,88.1
2018-03-08T03:06:31.008Z,88.1
2018-03-08T03:07:40.766Z,87.63
2018-03-08T03:08:52.084Z,88.2
2018-03-08T03:10:02.267Z,87.92
2018-03-08T03:11:12.409Z,87.73
2018-03-08T03:12:22.019Z,87.63
2018-03-08T03:13:32.189Z,87.73
2018-03-08T03:14:42.355Z,87.92
2018-03-08T03:15:52.238Z,87.92
2018-03-08T03:17:01.956Z,87.82
2018-03-08T03:18:12.112Z,87.82
2018-03-08T03:19:21.798Z,87.73
2018-03-08T03:20:31.938Z,87.63
2018-03-08T03:21:42.163Z,87.73
2018-03-08T03:22:52.334Z,87.73
2018-03-08T03:24:02.536Z,87.54
2018-03-08T03:25:12.702Z,87.73
2018-03-08T03:26:23.061Z,88.1
2018-03-08T03:27:32.926Z,87.54
2018-03-08T03:28:42.805Z,87.63
2018-03-08T03:29:52.661Z,87.63
2018-03-08T03:31:02.820Z,88.1
2018-03-08T03:32:13.230Z,88.01
2018-03-08T03:33:22.472Z,87.45
2018-03-08T03:34:32.070Z,87.54
2018-03-08T03:35:42.270Z,87.25
2018-03-08T03:36:52.412Z,87.92
2018-03-08T03:38:02.401Z,88.1
2018-03-08T03:39:11.916Z,88.1
2018-03-08T03:40:22.029Z,88.01
2018-03-08T03:41:31.641Z,87.16
2018-03-08T03:42:41.754Z,87.16
2018-03-08T03:43:51.561Z,87.16
2018-03-08T03:45:01.354Z,87.06
2018-03-08T03:46:11.506Z,87.25
2018-03-08T03:47:21.399Z,87.54
2018-03-08T03:48:31.276Z,87.45
2018-03-08T03:49:41.377Z,87.45
2018-03-08T03:50:51.530Z,87.92
2018-03-08T03:52:01.657Z,88.01
2018-03-08T03:53:11.787Z,88.01
2018-03-08T03:54:22.026Z,88.1
2018-03-08T03:55:32.166Z,87.92
2018-03-08T03:56:42.346Z,87.45
2018-03-08T03:57:52.253Z,87.35
2018-03-08T03:59:02.422Z,87.35
2018-03-08T04:00:12.605Z,87.45
2018-03-08T04:01:22.503Z,87.16
2018-03-08T04:02:32.395Z,87.35
2018-03-08T04:03:42.521Z,87.16
2018-03-08T04:04:52.635Z,87.06
2018-03-08T04:06:02.813Z,87.06
2018-03-08T04:07:13.218Z,87.25
2018-03-08T04:08:23.332Z,87.45
2018-03-08T04:09:33.230Z,87.25
2018-03-08T04:10:43.226Z,87.35
2018-03-08T04:11:53.353Z,87.06
2018-03-08T04:13:03.464Z,87.25
2018-03-08T04:14:13.590Z,87.25
2018-03-08T04:15:24.743Z,87.35
2018-03-08T04:16:34.376Z,87.16
2018-03-08T04:17:44.232Z,87.06
2018-03-08T04:18:54.420Z,86.78
2018-03-08T04:20:04.277Z,86.87
2018-03-08T04:21:14.139Z,86.87
2018-03-08T04:22:24.081Z,86.78
2018-03-08T04:23:33.972Z,86.97
2018-03-08T04:24:43.625Z,86.78
2018-03-08T04:25:53.870Z,86.68
2018-03-08T04:27:03.621Z,86.97
2018-03-08T04:28:13.741Z,86.78
2018-03-08T04:29:23.861Z,86.78
2018-03-08T04:30:33.782Z,86.97
2018-03-08T04:31:43.867Z,86.97
2018-03-08T04:32:54.098Z,86.97
2018-03-08T04:34:04.260Z,86.87
2018-03-08T04:35:14.214Z,87.45
2018-03-08T04:36:24.067Z,87.06
2018-03-08T04:37:34.187Z,87.45
2018-03-08T04:38:44.209Z,87.25
2018-03-08T04:39:54.357Z,87.16
2018-03-08T04:41:04.287Z,87.16
2018-03-08T04:42:14.430Z,87.35
2018-03-08T04:43:24.600Z,87.45
2018-03-08T04:44:34.465Z,87.45
2018-03-08T04:45:44.614Z,87.54
2018-03-08T04:46:54.786Z,87.25
2018-03-08T04:48:04.902Z,87.25
2018-03-08T04:49:15.081Z,87.35
2018-03-08T04:50:25.213Z,87.45
2018-03-08T04:51:35.328Z,87.35
2018-03-08T04:52:45.466Z,86.97
2018-03-08T04:53:55.604Z,86.82
2018-03-08T04:55:05.473Z,87.01
2018-03-08T04:56:15.091Z,86.87
2018-03-08T04:57:24.981Z,86.82
2018-03-08T04:58:35.128Z,86.82
2018-03-08T04:59:45.309Z,86.78
2018-03-08T05:00:55.140Z,86.82
2018-03-08T05:02:04.694Z,86.91
2018-03-08T05:03:14.587Z,86.78
2018-03-08T05:04:24.452Z,86.68
2018-03-08T05:05:34.610Z,86.68
2018-03-08T05:06:44.492Z,86.97
2018-03-08T05:07:54.371Z,86.97
2018-03-08T05:09:04.242Z,86.68
2018-03-08T05:10:14.156Z,86.97
2018-03-08T05:11:24.558Z,86.78
2018-03-08T05:12:34.467Z,86.97
2018-03-08T05:13:44.344Z,86.97
2018-03-08T05:14:54.473Z,86.87
2018-03-08T05:16:04.395Z,86.97
2018-03-08T05:17:14.297Z,86.87
2018-03-08T05:18:24.488Z,87.49
2018-03-08T05:19:34.636Z,86.91
2018-03-08T05:20:44.479Z,86.82
2018-03-08T05:21:54.636Z,86.72
2018-03-08T05:23:04.804Z,87.01
2018-03-08T05:24:15.057Z,86.91
2018-03-08T05:25:25.341Z,86.91
2018-03-08T05:26:35.568Z,87.01
2018-03-08T05:27:45.093Z,87.49
2018-03-08T05:28:55.368Z,86.72
2018-03-08T05:30:05.515Z,87.49
2018-03-08T05:31:15.676Z,87.01
2018-03-08T05:32:25.649Z,87.39
2018-03-08T05:33:35.874Z,86.82
2018-03-08T05:34:46.155Z,86.91
2018-03-08T05:35:56.312Z,87.11
2018-03-08T05:37:06.480Z,86.91
2018-03-08T05:38:16.712Z,87.01
2018-03-08T05:39:26.855Z,86.63
2018-03-08T05:40:37.022Z,86.91
2018-03-08T05:41:47.160Z,86.82
2018-03-08T05:42:56.762Z,87.11
2018-03-08T05:44:06.952Z,86.91
2018-03-08T05:45:17.100Z,87.11
2018-03-08T05:46:27.246Z,86.91
2018-03-08T05:47:37.185Z,86.91
2018-03-08T05:48:47.060Z,86.54
2018-03-08T05:49:56.944Z,86.91
2018-03-08T05:51:07.140Z,86.82
2018-03-08T05:52:16.693Z,86.35
2018-03-08T05:53:26.575Z,86.72
2018-03-08T05:54:36.173Z,86.82
2018-03-08T05:55:46.439Z,86.44
2018-03-08T05:56:56.561Z,86.63
2018-03-08T05:58:06.438Z,86.63
2018-03-08T05:59:16.042Z,86.63
2018-03-08T06:00:26.083Z,86.63
2018-03-08T06:01:35.951Z,86.63
2018-03-08T06:02:46.077Z,86.54
2018-03-08T06:03:56.257Z,86.72
2018-03-08T06:05:06.269Z,86.54
2018-03-08T06:06:16.419Z,87.01
2018-03-08T06:07:25.958Z,86.44
2018-03-08T06:08:36.100Z,86.91
2018-03-08T06:09:46.340Z,87.01
2018-03-08T06:10:56.580Z,86.63
2018-03-08T06:12:06.769Z,86.82
2018-03-08T06:13:17.058Z,86.54
2018-03-08T06:14:26.934Z,86.63
2018-03-08T06:15:37.065Z,86.54
2018-03-08T06:16:47.206Z,86.54
2018-03-08T06:17:57.143Z,86.82
2018-03-08T06:19:06.663Z,86.91
2018-03-08T06:20:16.566Z,86.72
2018-03-08T06:21:26.080Z,87.49
2018-03-08T06:22:35.944Z,87.39
2018-03-08T06:23:46.066Z,87.49
2018-03-08T06:24:56.306Z,87.3
2018-03-08T06:26:06.562Z,87.3
2018-03-08T06:27:16.881Z,87.3
2018-03-08T06:28:27.044Z,87.49
2018-03-08T06:29:36.940Z,87.49
2018-03-08T06:30:47.075Z,87.39
2018-03-08T06:31:56.991Z,87.11
2018-03-08T06:33:07.457Z,87.49
2018-03-08T06:34:17.649Z,87.49
2018-03-08T06:35:27.901Z,87.11
2018-03-08T06:36:38.124Z,87.3
2018-03-08T06:37:48.301Z,87.39
2018-03-08T06:38:58.792Z,87.3
2018-03-08T06:40:09.303Z,87.2
2018-03-08T06:41:19.453Z,87.11
2018-03-08T06:42:29.580Z,87.11
2018-03-08T06:43:39.759Z,87.11
2018-03-08T06:44:49.961Z,87.11
2018-03-08T06:46:00.133Z,87.39
2018-03-08T06:47:10.286Z,87.39
2018-03-08T06:48:20.404Z,87.49
2018-03-08T06:49:30.283Z,87.87
2018-03-08T06:50:40.414Z,87.87
2018-03-08T06:51:50.537Z,87.68
2018-03-08T06:53:00.786Z,87.68
2018-03-08T06:54:10.654Z,87.77
2018-03-08T06:55:20.807Z,87.87
2018-03-08T06:56:30.679Z,87.68
2018-03-08T06:57:40.792Z,87.68
2018-03-08T06:58:50.777Z,88.43
2018-03-08T07:00:00.574Z,88.24
2018-03-08T07:01:10.770Z,88.34
2018-03-08T07:02:20.667Z,88.15
2018-03-08T07:03:30.556Z,88.06
2018-03-08T07:04:40.669Z,88.15
2018-03-08T07:05:50.829Z,88.34
2018-03-08T07:07:00.953Z,88.34
2018-03-08T07:08:10.612Z,88.34
2018-03-08T07:09:20.826Z,88.06
2018-03-08T07:10:31.085Z,88.15
2018-03-08T07:11:40.701Z,88.24
2018-03-08T07:12:50.875Z,88.24
2018-03-08T07:14:01.010Z,88.43
2018-03-08T07:15:11.180Z,88.72
2018-03-08T07:16:21.296Z,88.72
2018-03-08T07:17:30.921Z,88.62
2018-03-08T07:18:41.344Z,88.72
2018-03-08T07:19:51.489Z,88.81
2018-03-08T07:21:01.736Z,88.62
2018-03-08T07:22:11.883Z,89
2018-03-08T07:23:21.751Z,88.81
2018-03-08T07:24:31.888Z,88.62
2018-03-08T07:25:42.022Z,88.43
2018-03-08T07:26:52.156Z,87.96
2018-03-08T07:28:02.127Z,88.15
2018-03-08T07:29:12.257Z,88.06
2018-03-08T07:30:22.489Z,87.96
2018-03-08T07:31:32.630Z,88.24
2018-03-08T07:32:42.840Z,88.34
2018-03-08T07:33:52.995Z,88.24
2018-03-08T07:35:03.178Z,88.34
2018-03-08T07:36:13.497Z,88.15
2018-03-08T07:37:23.774Z,88.24
2018-03-08T07:38:34.070Z,88.15
2018-03-08T07:39:44.293Z,88.2
2018-03-08T07:40:54.475Z,87.91
2018-03-08T07:42:04.295Z,88.01
2018-03-08T07:43:14.476Z,88.39
2018-03-08T07:44:24.393Z,88.39
2018-03-08T07:45:34.541Z,88.2
2018-03-08T07:46:44.496Z,87.82
2018-03-08T07:47:54.635Z,87.72
2018-03-08T07:49:04.167Z,87.91
2018-03-08T07:50:14.342Z,87.62
2018-03-08T07:51:24.336Z,87.91
2018-03-08T07:52:34.217Z,87.82
2018-03-08T07:53:44.365Z,87.34
2018-03-08T07:54:54.632Z,87.24
2018-03-08T07:56:04.566Z,87.05
2018-03-08T07:57:14.719Z,87.05
2018-03-08T07:58:24.871Z,87.24
2018-03-08T07:59:34.764Z,87.24
2018-03-08T08:00:44.916Z,87.05
2018-03-08T08:01:55.048Z,87.05
2018-03-08T08:03:04.956Z,87.05
2018-03-08T08:04:15.088Z,87.15
2018-03-08T08:05:25.222Z,87.15
2018-03-08T08:06:35.366Z,87.15
2018-03-08T08:07:45.645Z,87.53
2018-03-08T08:08:55.527Z,87.34
2018-03-08T08:10:05.716Z,87.24
2018-03-08T08:11:15.844Z,87.05
2018-03-08T08:12:26.965Z,87.05
2018-03-08T08:13:37.238Z,87.24
2018-03-08T08:14:47.419Z,87.62
2018-03-08T08:15:57.673Z,87.43
2018-03-08T08:17:07.904Z,87.91
2018-03-08T08:18:18.044Z,88.1
2018-03-08T08:19:28.495Z,87.72
2018-03-08T08:20:38.630Z,87.72
2018-03-08T08:21:48.792Z,87.62
2018-03-08T08:22:59.032Z,87.72
2018-03-08T08:24:09.230Z,87.91
2018-03-08T08:25:19.419Z,87.72
2018-03-08T08:26:29.322Z,87.91
2018-03-08T08:27:39.102Z,87.91
2018-03-08T08:28:49.252Z,87.82
2018-03-08T08:29:59.426Z,87.82
2018-03-08T08:31:08.810Z,87.53
2018-03-08T08:32:18.448Z,87.72
2018-03-08T08:33:28.719Z,87.62
2018-03-08T08:34:38.840Z,87.91
2018-03-08T08:35:49.083Z,87.82
2018-03-08T08:36:59.214Z,88.01
2018-03-08T08:38:09.385Z,87.53
2018-03-08T08:39:19.279Z,87.53
2018-03-08T08:40:29.556Z,87.53
2018-03-08T08:41:39.449Z,87.62
2018-03-08T08:42:49.638Z,87.82
2018-03-08T08:43:59.532Z,87.91
2018-03-08T08:45:09.936Z,87.62
2018-03-08T08:46:19.545Z,87.53
2018-03-08T08:47:29.419Z,87.82
2018-03-08T08:48:39.279Z,87.34
2018-03-08T08:49:49.416Z,87.43
2018-03-08T08:50:59.579Z,87.72
2018-03-08T08:52:09.755Z,87.24
2018-03-08T08:53:19.645Z,87.24
2018-03-08T08:54:29.786Z,86.87
2018-03-08T08:55:40.097Z,87.05
2018-03-08T08:56:49.762Z,86.96
2018-03-08T08:57:59.652Z,87.34
2018-03-08T08:59:09.877Z,87.19
2018-03-08T09:00:19.775Z,86.72
2018-03-08T09:01:29.697Z,86.91
2018-03-08T09:02:39.614Z,87.19
2018-03-08T09:03:49.754Z,86.58
2018-03-08T09:04:59.915Z,86.63
2018-03-08T09:06:09.239Z,86.91
2018-03-08T09:07:19.262Z,86.91
2018-03-08T09:08:29.184Z,86.24
2018-03-08T09:09:39.317Z,86.15
2018-03-08T09:10:49.303Z,86.24
2018-03-08T09:11:59.580Z,86.05
2018-03-08T09:13:09.820Z,86.53
2018-03-08T09:14:20.025Z,85.62
2018-03-08T09:15:30.155Z,85.53
2018-03-08T09:16:40.335Z,85.15
2018-03-08T09:17:50.699Z,85.24
2018-03-08T09:19:00.974Z,84.39
2018-03-08T09:20:11.315Z,84.14
2018-03-08T09:21:20.961Z,83.58
2018-03-08T09:22:31.165Z,83.1
2018-03-08T09:23:41.312Z,82.76
2018-03-08T09:24:51.471Z,82.42
2018-03-08T09:26:01.724Z,82.08
2018-03-08T09:27:11.924Z,80.5
2018-03-08T09:28:23.050Z,79.49
2018-03-08T09:29:32.974Z,78.77
2018-03-08T09:30:43.139Z,77.28
2018-03-08T09:31:53.349Z,76.31
2018-03-08T09:33:03.231Z,74.66
2018-03-08T09:34:13.100Z,72.98
2018-03-08T09:35:23.248Z,71.2
2018-03-08T09:36:33.133Z,70.62
2018-03-08T09:37:43.079Z,69.38
2018-03-08T09:38:53.265Z,68.2
2018-03-08T09:40:03.409Z,68.01
2018-03-08T09:41:13.087Z,67.05
2018-03-08T09:42:23.061Z,66.35
2018-03-08T09:43:33.230Z,65.87
2018-03-08T09:44:43.152Z,65.71
2018-03-08T09:45:53.348Z,64.98
2018-03-08T09:47:03.479Z,63.96
2018-03-08T09:48:13.668Z,63
2018-03-08T09:49:23.853Z,62.36
2018-03-08T09:50:33.766Z,60.86
2018-03-08T09:51:43.980Z,60
2018-03-08T09:52:53.927Z,59.06
2018-03-08T09:54:04.114Z,57.46
2018-03-08T09:55:14.319Z,56.73
2018-03-08T09:56:24.511Z,56.24
2018-03-08T09:57:34.883Z,55.02
2018-03-08T09:58:44.832Z,53.32
2018-03-08T09:59:54.465Z,51.59
2018-03-08T10:01:04.640Z,51.31
2018-03-08T10:02:14.842Z,51.43
2018-03-08T10:03:24.688Z,49.51
2018-03-08T10:04:34.636Z,49.79
2018-03-08T10:05:44.946Z,49.02
2018-03-08T10:06:54.891Z,48.16
2018-03-08T10:08:04.511Z,47.87
2018-03-08T10:09:14.399Z,47.77
2018-03-08T10:10:24.420Z,47.97
2018-03-08T10:11:34.249Z,47.17
2018-03-08T10:12:43.929Z,45.25
2018-03-08T10:13:54.167Z,45.35
2018-03-08T10:15:04.069Z,44.27
2018-03-08T10:16:14.228Z,45.81
2018-03-08T10:17:24.418Z,45.78
2018-03-08T10:18:34.352Z,45.76
2018-03-08T10:19:44.520Z,45.76
2018-03-08T10:20:54.487Z,45.83
2018-03-08T10:22:04.299Z,45.74
2018-03-08T10:23:14.252Z,46.12
2018-03-08T10:24:24.426Z,46.03
2018-03-08T10:25:34.259Z,46.05
2018-03-08T10:26:44.189Z,45.28
2018-03-08T10:27:54.345Z,45.09
2018-03-08T10:29:04.589Z,45.01
2018-03-08T10:30:14.793Z,44.17
2018-03-08T10:31:25.097Z,41.96
2018-03-08T10:32:35.304Z,42.93
2018-03-08T10:33:45.543Z,42.35
2018-03-08T10:34:55.228Z,42.16
2018-03-08T10:36:05.057Z,42.06
2018-03-08T10:37:16.842Z,42.16
2018-03-08T10:38:29.304Z,41.77
2018-03-08T10:39:39.472Z,40.52
2018-03-08T10:40:49.750Z,41.02
2018-03-08T10:41:59.944Z,40.73
2018-03-08T10:43:10.125Z,39.2
2018-03-08T10:44:20.329Z,39.2
2018-03-08T10:45:30.573Z,39.68
2018-03-08T10:46:40.761Z,39.58
2018-03-08T10:47:50.940Z,39.28
2018-03-08T10:49:04.252Z,39.37
2018-03-08T10:50:14.596Z,39.37
2018-03-08T10:51:25.498Z,38.12
2018-03-08T10:52:35.432Z,37.93
2018-03-08T10:53:45.441Z,38.51
2018-03-08T10:54:55.659Z,39.29
2018-03-08T10:56:05.490Z,39.11
2018-03-08T10:57:15.673Z,38.54
2018-03-08T10:58:25.850Z,37.87
2018-03-08T10:59:36.310Z,38.26
2018-03-08T11:00:46.212Z,38.07
2018-03-08T11:01:57.496Z,38.16
2018-03-08T11:03:07.486Z,37.77
2018-03-08T11:04:17.727Z,37.7
2018-03-08T11:05:27.635Z,37.7
2018-03-08T11:06:37.690Z,36.45
2018-03-08T11:07:47.668Z,34.83
2018-03-08T11:08:57.862Z,36.18
2018-03-08T11:10:07.770Z,36.54
2018-03-08T11:11:17.984Z,36.16
2018-03-08T11:12:28.220Z,36.24
2018-03-08T11:13:39.255Z,36.53
2018-03-08T11:16:09.069Z,36.33
2018-03-08T11:17:19.263Z,36.32
2018-03-08T11:18:28.940Z,36.41
2018-03-08T11:19:38.871Z,36.01
2018-03-08T11:20:48.181Z,36.11
2018-03-08T11:21:58.372Z,36.03
2018-03-08T11:23:08.212Z,36.32
2018-03-08T11:24:18.406Z,36.13
2018-03-08T11:25:28.618Z,35.83
2018-03-08T11:26:38.585Z,35.06
2018-03-08T11:27:48.770Z,35.36
2018-03-08T11:28:59.000Z,35.74
2018-03-08T11:30:09.222Z,36.32
2018-03-08T11:31:19.182Z,34.78
2018-03-08T11:32:29.348Z,34.8
2018-03-08T11:33:39.572Z,34.7
2018-03-08T11:34:49.544Z,35.28
2018-03-08T11:35:59.449Z,34.12
2018-03-08T11:37:09.420Z,33.54
2018-03-08T11:38:19.369Z,34.12
2018-03-08T11:39:29.326Z,34.41
2018-03-08T11:40:40.912Z,33.93
2018-03-08T11:41:50.871Z,34.03
2018-03-08T11:43:01.174Z,33.16
2018-03-08T11:44:11.487Z,33.26
2018-03-08T11:45:21.693Z,33.47
2018-03-08T11:46:32.088Z,33.75
2018-03-08T11:47:42.273Z,34.14
2018-03-08T11:48:53.664Z,34.14
2018-03-08T11:50:03.545Z,34.14
2018-03-08T11:51:13.756Z,32.98
2018-03-08T11:52:24.002Z,32.71
2018-03-08T11:53:34.183Z,32.62
2018-03-08T11:54:44.413Z,32.23
2018-03-08T11:55:54.882Z,32.04
2018-03-08T11:57:05.053Z,32.81
2018-03-08T11:58:14.963Z,32.89
2018-03-08T11:59:25.217Z,32.9
2018-03-08T12:00:35.443Z,32.23
2018-03-08T12:01:45.684Z,31.95
2018-03-08T12:02:55.973Z,31.85
2018-03-08T12:04:06.221Z,31.46
2018-03-08T12:05:16.420Z,32.04
2018-03-08T12:06:26.636Z,31.37
2018-03-08T12:07:36.876Z,32.23
2018-03-08T12:08:47.071Z,31.48
2018-03-08T12:09:57.242Z,31.57
2018-03-08T12:11:07.442Z,32.33
2018-03-08T12:12:17.635Z,32.33
2018-03-08T12:13:27.844Z,32.89
2018-03-08T12:14:38.054Z,32.7
2018-03-08T12:15:48.315Z,32.49
2018-03-08T12:16:58.700Z,32.68
2018-03-08T12:18:09.146Z,32.1
2018-03-08T12:19:19.386Z,32.1
2018-03-08T12:20:29.617Z,32.2
2018-03-08T12:21:39.940Z,32.12
2018-03-08T12:22:50.224Z,31.83
2018-03-08T12:24:00.448Z,31.35
2018-03-08T12:25:10.660Z,30.97
2018-03-08T12:26:20.965Z,31.26
2018-03-08T12:27:30.794Z,31.82
2018-03-08T12:28:41.004Z,31.92
2018-03-08T12:29:51.176Z,32.49
2018-03-08T12:31:01.275Z,32.28
2018-03-08T12:32:11.087Z,32.57
2018-03-08T12:33:20.757Z,32.57
2018-03-08T12:34:30.636Z,32.67
2018-03-08T12:35:40.322Z,31.72
2018-03-08T12:36:50.211Z,32.2
2018-03-08T12:38:00.121Z,32.01
2018-03-08T12:39:10.340Z,32.2
2018-03-08T12:40:20.242Z,31.61
2018-03-08T12:41:30.654Z,32.09
2018-03-08T12:42:40.812Z,32.86
2018-03-08T12:43:50.746Z,32.95
2018-03-08T12:45:00.955Z,32.86
2018-03-08T12:46:10.934Z,32.86
2018-03-08T12:47:21.110Z,32.68
2018-03-08T12:48:31.377Z,32.68
2018-03-08T12:49:41.638Z,32.59
2018-03-08T12:50:51.823Z,32.87
2018-03-08T12:52:01.460Z,32.59
2018-03-08T12:53:11.660Z,32.01
2018-03-08T12:54:21.459Z,31.72
2018-03-08T12:55:31.530Z,32.2
2018-03-08T12:56:41.729Z,31.8
2018-03-08T12:57:51.654Z,32.18
2018-03-08T12:59:01.794Z,31.99
2018-03-08T13:00:11.689Z,32.2
2018-03-08T13:01:21.669Z,32.01
2018-03-08T13:02:31.620Z,32.09
2018-03-08T13:03:41.850Z,32.75
2018-03-08T13:04:52.120Z,32.65
2018-03-08T13:06:01.638Z,32.55
2018-03-08T13:07:11.556Z,32.92
2018-03-08T13:08:21.777Z,33.11
2018-03-08T13:09:31.935Z,33.59
2018-03-08T13:10:41.911Z,33.59
2018-03-08T13:11:52.182Z,34.07
2018-03-08T13:13:01.835Z,34.07
2018-03-08T13:14:12.101Z,34.17
2018-03-08T13:15:22.008Z,34.36
2018-03-08T13:16:32.445Z,34.27
2018-03-08T13:17:42.360Z,33.98
2018-03-08T13:18:52.560Z,34.36
2018-03-08T13:20:02.488Z,34.65
2018-03-08T13:21:12.659Z,34.92
2018-03-08T13:22:22.866Z,35.38
2018-03-08T13:23:33.092Z,35.48
2018-03-08T13:24:43.268Z,35.86
2018-03-08T13:25:53.183Z,36.05
2018-03-08T13:27:03.381Z,36.24
2018-03-08T13:28:13.783Z,36.15
2018-03-08T13:29:24.011Z,36.32
2018-03-08T13:30:33.333Z,36.51
2018-03-08T13:31:42.879Z,36.61
2018-03-08T13:32:53.110Z,36.51
2018-03-08T13:34:03.237Z,36.59
2018-03-08T13:35:13.405Z,37.07
2018-03-08T13:36:23.370Z,37.05
2018-03-08T13:37:33.621Z,36.96
2018-03-08T13:38:43.640Z,36.96
2018-03-08T13:39:53.670Z,37.15
2018-03-08T13:41:03.599Z,37.53
2018-03-08T13:42:13.683Z,38.18
2018-03-08T13:43:23.511Z,38.47
2018-03-08T13:44:33.736Z,38.95
2018-03-08T13:45:43.947Z,39.04
2018-03-08T13:46:54.044Z,39.23
2018-03-08T13:48:04.208Z,39.23
2018-03-08T13:49:13.884Z,39.33
2018-03-08T13:50:23.981Z,39.31
2018-03-08T13:51:34.165Z,39.69
2018-03-08T13:52:44.133Z,40.25
2018-03-08T13:53:54.071Z,40.34
2018-03-08T13:55:04.220Z,40.7
2018-03-08T13:56:14.504Z,40.8
2018-03-08T13:57:23.936Z,41.18
2018-03-08T13:58:34.285Z,41.56
2018-03-08T13:59:44.488Z,41.38
2018-03-08T14:00:54.297Z,41.75
2018-03-08T14:02:04.477Z,42.02
2018-03-08T14:03:14.764Z,42.21
2018-03-08T14:04:24.201Z,42.69
2018-03-08T14:05:34.577Z,42.6
2018-03-08T14:06:44.242Z,42.88
2018-03-08T14:07:54.232Z,43.07
2018-03-08T14:09:04.431Z,43.17
2018-03-08T14:10:13.999Z,43.84
2018-03-08T14:11:23.961Z,43.65
2018-03-08T14:12:33.917Z,43.46
2018-03-08T14:13:43.545Z,43.24
2018-03-08T14:14:53.440Z,43.65
2018-03-08T14:16:03.815Z,43.93
2018-03-08T14:17:13.725Z,44.02
2018-03-08T14:18:23.671Z,43.72
2018-03-08T14:19:33.645Z,43.74
2018-03-08T14:20:43.803Z,44.01
2018-03-08T14:21:53.816Z,43.91
2018-03-08T14:23:04.033Z,44.38
2018-03-08T14:24:14.200Z,44.77
2018-03-08T14:25:23.512Z,45.15
2018-03-08T14:26:33.252Z,44.96
2018-03-08T14:27:42.930Z,45.15
2018-03-08T14:28:53.090Z,45.25
2018-03-08T14:30:03.259Z,45.53
2018-03-08T14:31:13.231Z,45.72
2018-03-08T14:32:23.679Z,45.82
2018-03-08T14:33:33.830Z,45.82
2018-03-08T14:34:44.241Z,46.01
2018-03-08T14:35:54.217Z,46.3
2018-03-08T14:37:04.400Z,46.68
2018-03-08T14:38:14.350Z,46.68
2018-03-08T14:39:24.232Z,46.94
2018-03-08T14:40:34.381Z,46.66
2018-03-08T14:41:44.224Z,46.84
2018-03-08T14:42:54.104Z,46.84
2018-03-08T14:44:03.913Z,47.32
2018-03-08T14:45:13.534Z,47.61
2018-03-08T14:46:23.522Z,47.8
2018-03-08T14:47:33.552Z,47.89
2018-03-08T14:48:43.803Z,47.87
2018-03-08T14:49:54.020Z,48.16
2018-03-08T14:51:04.480Z,48.73
2018-03-08T14:52:14.801Z,48.83
2018-03-08T14:53:24.990Z,49.11
2018-03-08T14:54:35.210Z,49.3
2018-03-08T14:55:45.435Z,49.3
2018-03-08T14:56:55.387Z,48.92
2018-03-08T14:58:05.376Z,48.92
2018-03-08T14:59:15.559Z,49.11
2018-03-08T15:00:25.778Z,49.4
2018-03-08T15:01:36.071Z,49.4
2018-03-08T15:02:46.007Z,49.02
2018-03-08T15:03:55.671Z,49.21
2018-03-08T15:05:04.954Z,49.3
2018-03-08T15:06:15.113Z,49.3
2018-03-08T15:07:25.028Z,49.87